Terminal Aerodrome Forecast
Issued by NWS

Current Version | Previous Version | Text Only | Print | Product List | Glossary Off
Versions: 1 2 3 4 5 6 7 8 9 10 11 12 13 14

000
FTUS41 KILN 211600 AAA
TAFLUK
TAF AMD
KLUK 211615Z 2116/2212 36008KT P6SM OVC035
      TEMPO 2116/2118 BKN020
     FM211800 33008KT P6SM BKN035
     FM212200 32010KT P6SM SCT045
     FM220500 26004KT P6SM FEW040=

USA.gov is the U.S. government's official web portal to all federal, state and local government web resources and services.